Aérodrome :
LOGIN :

S'inscrire | Disclaimer

   EN    FR    IT 

 










Légende :    VFR   VFR Marginal   IFR   IFR Intensif   IFR Très Intensif
Visi : 
Plafond : 
>= 8 km
>= 3000ft
5 à 8 km
1000 à 3000 ft
1500m à 5 km
500 à 1000 ft
800 à 1500m
200 à 500 ft
< 800m
< 200 ft
Symboles :   Orages  Brouillard  Fortes neiges  Fortes précipitations  Vent > 20 kt
SIGMETs :   Divers  Orages  Givrage  Turbulence  Onde Orograph.  Cendres Volcan.







- Altitude de l'aérodrome : 1 ft
- Voir les cartes d'approche


EGCK - Caernarfon

DERNIER METAR :
  • 161450Z 19017KT 9999 SCT010 BKN015 BKN027 10/08 Q1016

METARs EXPIRÉS :
  • 161420Z 19017KT 9999 VCSH BKN015 BKN027 11/08 Q1016
  • 161350Z 18017KT 9999 SCT015 BKN032 11/08 Q1017
  • 161320Z 19019KT 9999 SCT019 BKN033 11/08 Q1017
  • 161250Z 19018KT 9999 SCT015 BKN024 BKN031 11/07 Q1017
  • 161220Z 19018KT 9999 SCT015 BKN027 BKN034 11/08 Q1018
  • 161150Z 19020KT 9999 BKN018 BKN028 10/08 Q1018

TAF TAF EGCK
Valide du 16 à 15h jusqu'au 17 à 00h UTC


161359Z 1615/1624 19018G28KT 9999 FEW010 BKN035
BECMG 1615/1618 FEW008 BKN010
TEMPO 1615/1621 8000 FEW004 BKN008
PROB30
TEMPO 1618/1621 4000 BR BKN004
PROB40 1621/1624 FEW010
Pas de NOTAMs connus pour ce terrain.



MET'MAP, la Météo Aéronautique d'un coup d'oeil ! - Copyright ORBIFLY Décembre 2007 - Disclaimer

ORBIFLY MET'MAP TEAM :

Programmation & Développement : Alexandra Zaïnal
Conception & Développement : Baudouin d'Aumeries
Co-Programmation & Développement : Marc-Olivier Méhu
Soutien technique & logistique : Manuel Goepfert

Contact : metmap@orbifly.com




SOURCES & CREDITS :

   NOAA